Pagrindinis puslapis
METAR-TAF:

METAR-TAF

Oro uostai :

Belgorodas, Rusija

platuma: 50-38-36N, ilguma: 036-35-24E, Aukštis: 224 m

Dabartinis oras

Ataskaita buvo paskelbta 28 minutes, ne 14:30 UTC
Vėjas 10 kt iš Pietryčių
Temperatūra 16°C
Drėgmė 15%
Slėgis 1005 hPa
Matomumas 10 km arba daugiau
nėra debesų žemiau 1500 m ir nėra kamuolinių lietaus debesų

METAR: UUOB 291430Z 13005MPS CAVOK 16/M11 Q1005 R11/010060 NOSIG

Laikas: 17:58 (14:58 UTC)

Prognozė

Ataskaita buvo paskelbta 58 minutes, ne 14:00 UTC
Prognozė galioja nuo 29 metu 15 UTC su 29 metu 24 UTC
Vėjas 12 kt iš Rytų/Pietryčių su gūsio iki 21 kt
Matomumas 10 km arba daugiau
Su prošvaistėmis ne aukštis 4000 ft

TAF: UUOB 291400Z 2915/2924 12006G11MPS 9999 BKN040

Orai ataskaitas ir orų prognozės (METAR, TAF).

turimą stotys yra geltonos ir raudonos taškus žemėlapyje.

Perkelti pele per norėdami pamatyti stoties vardą.

Tada spustelėkite, norėdami matyti oro stebėjimo ir prognozės.

Norėdami pakeisti žemėlapį: spustelėkite ant žalios mygtukų su juodo kryžiaus žemyn,; žalią mygtuką su brūkšneliu, jei norite nutolinti; arba žalių rodyklių gretimoms žemėlapius.


METAR-TAF: